sensor_id;sensor_type;location;lat;lon;timestamp;P1;durP1;ratioP1;P2;durP2;ratioP2
75429;SDS011;64127;51.488;5.462;2023-03-31T00:01:21;7.27;;;2.40;;
75429;SDS011;64127;51.488;5.462;2023-03-31T00:03:56;5.13;;;2.47;;
75429;SDS011;64127;51.488;5.462;2023-03-31T00:06:36;4.53;;;2.53;;
75429;SDS011;64127;51.488;5.462;2023-03-31T00:09:15;4.83;;;2.47;;
75429;SDS011;64127;51.488;5.462;2023-03-31T00:11:52;5.33;;;2.50;;
75429;SDS011;64127;51.488;5.462;2023-03-31T00:14:25;5.63;;;2.50;;
75429;SDS011;64127;51.488;5.462;2023-03-31T00:16:58;8.47;;;2.73;;
75429;SDS011;64127;51.488;5.462;2023-03-31T00:19:32;5.97;;;2.40;;
75429;SDS011;64127;51.488;5.462;2023-03-31T00:22:04;3.57;;;2.33;;
75429;SDS011;64127;51.488;5.462;2023-03-31T00:24:36;5.77;;;2.23;;
75429;SDS011;64127;51.488;5.462;2023-03-31T00:27:09;5.63;;;2.40;;
75429;SDS011;64127;51.488;5.462;2023-03-31T00:29:41;5.63;;;2.40;;
75429;SDS011;64127;51.488;5.462;2023-03-31T00:32:13;7.63;;;2.80;;
75429;SDS011;64127;51.488;5.462;2023-03-31T00:34:46;8.40;;;2.90;;
75429;SDS011;64127;51.488;5.462;2023-03-31T00:37:20;6.73;;;2.57;;
75429;SDS011;64127;51.488;5.462;2023-03-31T00:39:52;5.20;;;2.40;;
75429;SDS011;64127;51.488;5.462;2023-03-31T00:42:25;6.70;;;2.43;;
75429;SDS011;64127;51.488;5.462;2023-03-31T00:48:19;4.90;;;2.10;;
75429;SDS011;64127;51.488;5.462;2023-03-31T00:50:54;5.53;;;2.40;;
75429;SDS011;64127;51.488;5.462;2023-03-31T00:53:30;5.83;;;2.30;;
75429;SDS011;64127;51.488;5.462;2023-03-31T00:56:06;5.13;;;2.23;;
75429;SDS011;64127;51.488;5.462;2023-03-31T00:58:44;6.80;;;2.40;;
75429;SDS011;64127;51.488;5.462;2023-03-31T01:01:18;7.83;;;2.53;;
75429;SDS011;64127;51.488;5.462;2023-03-31T01:03:56;6.37;;;2.27;;
75429;SDS011;64127;51.488;5.462;2023-03-31T01:06:29;6.40;;;2.20;;
75429;SDS011;64127;51.488;5.462;2023-03-31T01:09:03;6.83;;;2.50;;
75429;SDS011;64127;51.488;5.462;2023-03-31T01:11:37;8.73;;;2.63;;
75429;SDS011;64127;51.488;5.462;2023-03-31T01:14:10;5.90;;;2.47;;
75429;SDS011;64127;51.488;5.462;2023-03-31T01:16:43;6.63;;;2.50;;
75429;SDS011;64127;51.488;5.462;2023-03-31T01:19:19;8.03;;;2.40;;
75429;SDS011;64127;51.488;5.462;2023-03-31T01:25:31;4.93;;;2.23;;
75429;SDS011;64127;51.488;5.462;2023-03-31T01:35:34;9.40;;;2.93;;
75429;SDS011;64127;51.488;5.462;2023-03-31T01:41:47;7.80;;;2.27;;
75429;SDS011;64127;51.488;5.462;2023-03-31T01:44:53;6.50;;;2.50;;
75429;SDS011;64127;51.488;5.462;2023-03-31T01:48:13;9.20;;;2.33;;
75429;SDS011;64127;51.488;5.462;2023-03-31T01:50:57;6.37;;;2.23;;
75429;SDS011;64127;51.488;5.462;2023-03-31T01:57:02;8.00;;;2.53;;
75429;SDS011;64127;51.488;5.462;2023-03-31T02:02:41;7.97;;;2.33;;
75429;SDS011;64127;51.488;5.462;2023-03-31T02:05:21;10.43;;;2.40;;
75429;SDS011;64127;51.488;5.462;2023-03-31T02:08:07;9.00;;;2.77;;
75429;SDS011;64127;51.488;5.462;2023-03-31T02:10:47;10.10;;;2.80;;
75429;SDS011;64127;51.488;5.462;2023-03-31T02:13:22;8.03;;;3.10;;
75429;SDS011;64127;51.488;5.462;2023-03-31T02:16:01;8.30;;;2.80;;
75429;SDS011;64127;51.488;5.462;2023-03-31T02:18:42;9.47;;;3.10;;
75429;SDS011;64127;51.488;5.462;2023-03-31T02:21:19;11.53;;;3.10;;
75429;SDS011;64127;51.488;5.462;2023-03-31T02:23:53;11.80;;;4.03;;
75429;SDS011;64127;51.488;5.462;2023-03-31T02:26:30;12.80;;;3.50;;
75429;SDS011;64127;51.488;5.462;2023-03-31T02:29:18;11.57;;;3.37;;
75429;SDS011;64127;51.488;5.462;2023-03-31T02:35:09;11.27;;;3.27;;
75429;SDS011;64127;51.488;5.462;2023-03-31T02:37:46;9.87;;;3.17;;
75429;SDS011;64127;51.488;5.462;2023-03-31T02:40:24;11.00;;;3.30;;
75429;SDS011;64127;51.488;5.462;2023-03-31T02:42:57;10.93;;;3.50;;
75429;SDS011;64127;51.488;5.462;2023-03-31T02:45:46;10.87;;;3.63;;
75429;SDS011;64127;51.488;5.462;2023-03-31T02:56:27;8.07;;;3.00;;
75429;SDS011;64127;51.488;5.462;2023-03-31T03:02:22;10.40;;;3.23;;
75429;SDS011;64127;51.488;5.462;2023-03-31T03:14:11;11.93;;;3.13;;
75429;SDS011;64127;51.488;5.462;2023-03-31T03:17:05;8.03;;;2.77;;
75429;SDS011;64127;51.488;5.462;2023-03-31T03:19:49;10.13;;;3.20;;
75429;SDS011;64127;51.488;5.462;2023-03-31T03:22:26;9.37;;;2.97;;
75429;SDS011;64127;51.488;5.462;2023-03-31T03:24:58;10.60;;;2.90;;
75429;SDS011;64127;51.488;5.462;2023-03-31T03:27:30;7.03;;;2.67;;
75429;SDS011;64127;51.488;5.462;2023-03-31T03:30:03;10.23;;;3.17;;
75429;SDS011;64127;51.488;5.462;2023-03-31T03:32:41;12.80;;;3.50;;
75429;SDS011;64127;51.488;5.462;2023-03-31T03:35:14;10.97;;;3.17;;
75429;SDS011;64127;51.488;5.462;2023-03-31T03:37:46;10.10;;;3.00;;
75429;SDS011;64127;51.488;5.462;2023-03-31T03:40:18;9.13;;;3.20;;
75429;SDS011;64127;51.488;5.462;2023-03-31T03:42:50;8.00;;;3.07;;
75429;SDS011;64127;51.488;5.462;2023-03-31T03:45:22;8.50;;;3.03;;
75429;SDS011;64127;51.488;5.462;2023-03-31T03:47:54;6.37;;;2.57;;
75429;SDS011;64127;51.488;5.462;2023-03-31T03:50:26;6.53;;;2.40;;
75429;SDS011;64127;51.488;5.462;2023-03-31T03:52:58;7.77;;;2.60;;
75429;SDS011;64127;51.488;5.462;2023-03-31T03:55:30;6.37;;;2.73;;
75429;SDS011;64127;51.488;5.462;2023-03-31T03:58:03;7.47;;;2.37;;
75429;SDS011;64127;51.488;5.462;2023-03-31T04:00:35;9.03;;;2.87;;
75429;SDS011;64127;51.488;5.462;2023-03-31T04:03:07;10.30;;;2.77;;
75429;SDS011;64127;51.488;5.462;2023-03-31T04:05:40;8.73;;;3.07;;
75429;SDS011;64127;51.488;5.462;2023-03-31T04:08:12;8.30;;;2.60;;
75429;SDS011;64127;51.488;5.462;2023-03-31T04:10:45;6.70;;;2.40;;
75429;SDS011;64127;51.488;5.462;2023-03-31T04:13:22;8.53;;;2.40;;
75429;SDS011;64127;51.488;5.462;2023-03-31T04:15:54;9.00;;;2.63;;
75429;SDS011;64127;51.488;5.462;2023-03-31T04:18:26;7.43;;;2.80;;
75429;SDS011;64127;51.488;5.462;2023-03-31T04:20:58;8.87;;;3.20;;
75429;SDS011;64127;51.488;5.462;2023-03-31T04:23:42;6.83;;;2.83;;
75429;SDS011;64127;51.488;5.462;2023-03-31T04:26:17;7.23;;;2.87;;
75429;SDS011;64127;51.488;5.462;2023-03-31T04:28:57;5.90;;;2.43;;
75429;SDS011;64127;51.488;5.462;2023-03-31T04:31:30;9.87;;;2.90;;
75429;SDS011;64127;51.488;5.462;2023-03-31T04:34:03;7.73;;;2.53;;
75429;SDS011;64127;51.488;5.462;2023-03-31T04:36:37;7.20;;;2.13;;
75429;SDS011;64127;51.488;5.462;2023-03-31T04:39:18;7.93;;;2.43;;
75429;SDS011;64127;51.488;5.462;2023-03-31T04:41:57;8.23;;;2.30;;
75429;SDS011;64127;51.488;5.462;2023-03-31T04:44:31;6.07;;;2.07;;
75429;SDS011;64127;51.488;5.462;2023-03-31T04:47:03;7.90;;;2.10;;
75429;SDS011;64127;51.488;5.462;2023-03-31T04:49:37;9.37;;;2.50;;
75429;SDS011;64127;51.488;5.462;2023-03-31T04:52:09;5.93;;;2.33;;
75429;SDS011;64127;51.488;5.462;2023-03-31T04:54:41;6.93;;;2.10;;
75429;SDS011;64127;51.488;5.462;2023-03-31T04:57:13;7.00;;;1.93;;
75429;SDS011;64127;51.488;5.462;2023-03-31T04:59:45;6.60;;;2.10;;
75429;SDS011;64127;51.488;5.462;2023-03-31T05:02:17;5.93;;;2.30;;
75429;SDS011;64127;51.488;5.462;2023-03-31T05:04:55;6.60;;;2.40;;
75429;SDS011;64127;51.488;5.462;2023-03-31T05:07:28;6.17;;;2.47;;
75429;SDS011;64127;51.488;5.462;2023-03-31T05:10:00;5.57;;;2.27;;
75429;SDS011;64127;51.488;5.462;2023-03-31T05:12:35;7.63;;;2.10;;
75429;SDS011;64127;51.488;5.462;2023-03-31T05:15:09;8.23;;;2.03;;
75429;SDS011;64127;51.488;5.462;2023-03-31T05:17:41;5.80;;;2.40;;
75429;SDS011;64127;51.488;5.462;2023-03-31T05:20:13;7.73;;;2.70;;
75429;SDS011;64127;51.488;5.462;2023-03-31T05:22:46;7.80;;;2.70;;
75429;SDS011;64127;51.488;5.462;2023-03-31T05:25:18;5.70;;;2.00;;
75429;SDS011;64127;51.488;5.462;2023-03-31T05:27:50;6.07;;;2.00;;
75429;SDS011;64127;51.488;5.462;2023-03-31T05:30:24;3.73;;;2.13;;
75429;SDS011;64127;51.488;5.462;2023-03-31T05:32:57;7.63;;;2.50;;
75429;SDS011;64127;51.488;5.462;2023-03-31T05:35:29;6.53;;;2.37;;
75429;SDS011;64127;51.488;5.462;2023-03-31T05:38:01;5.67;;;2.00;;
75429;SDS011;64127;51.488;5.462;2023-03-31T05:40:33;7.60;;;2.20;;
75429;SDS011;64127;51.488;5.462;2023-03-31T05:43:05;4.37;;;1.93;;
75429;SDS011;64127;51.488;5.462;2023-03-31T05:45:37;4.90;;;2.00;;
75429;SDS011;64127;51.488;5.462;2023-03-31T05:48:09;6.20;;;2.33;;
75429;SDS011;64127;51.488;5.462;2023-03-31T05:50:41;4.97;;;2.10;;
75429;SDS011;64127;51.488;5.462;2023-03-31T05:53:14;7.27;;;2.50;;
75429;SDS011;64127;51.488;5.462;2023-03-31T05:55:46;6.30;;;2.57;;
75429;SDS011;64127;51.488;5.462;2023-03-31T05:58:18;6.93;;;2.67;;
75429;SDS011;64127;51.488;5.462;2023-03-31T06:00:58;7.00;;;2.50;;
75429;SDS011;64127;51.488;5.462;2023-03-31T06:03:57;5.87;;;2.70;;
75429;SDS011;64127;51.488;5.462;2023-03-31T06:06:29;5.90;;;2.13;;
75429;SDS011;64127;51.488;5.462;2023-03-31T06:09:05;7.07;;;2.37;;
75429;SDS011;64127;51.488;5.462;2023-03-31T06:11:37;4.87;;;2.60;;
75429;SDS011;64127;51.488;5.462;2023-03-31T06:14:09;4.43;;;2.03;;
75429;SDS011;64127;51.488;5.462;2023-03-31T06:16:42;8.13;;;2.50;;
75429;SDS011;64127;51.488;5.462;2023-03-31T06:19:14;6.43;;;2.37;;
75429;SDS011;64127;51.488;5.462;2023-03-31T06:21:46;5.33;;;2.10;;
75429;SDS011;64127;51.488;5.462;2023-03-31T06:24:18;6.03;;;2.30;;
75429;SDS011;64127;51.488;5.462;2023-03-31T06:26:51;6.33;;;2.10;;
75429;SDS011;64127;51.488;5.462;2023-03-31T06:29:24;6.83;;;2.60;;
75429;SDS011;64127;51.488;5.462;2023-03-31T06:31:57;5.60;;;2.03;;
75429;SDS011;64127;51.488;5.462;2023-03-31T06:34:29;6.30;;;2.23;;
75429;SDS011;64127;51.488;5.462;2023-03-31T06:37:07;5.00;;;2.17;;
75429;SDS011;64127;51.488;5.462;2023-03-31T06:39:39;8.87;;;2.30;;
75429;SDS011;64127;51.488;5.462;2023-03-31T06:42:11;7.53;;;2.70;;
75429;SDS011;64127;51.488;5.462;2023-03-31T06:44:43;7.27;;;2.57;;
75429;SDS011;64127;51.488;5.462;2023-03-31T06:47:15;9.07;;;3.10;;
75429;SDS011;64127;51.488;5.462;2023-03-31T06:49:47;10.10;;;2.83;;
75429;SDS011;64127;51.488;5.462;2023-03-31T06:52:19;10.07;;;3.03;;
75429;SDS011;64127;51.488;5.462;2023-03-31T06:54:52;8.57;;;3.03;;
75429;SDS011;64127;51.488;5.462;2023-03-31T06:57:25;8.10;;;3.00;;
75429;SDS011;64127;51.488;5.462;2023-03-31T06:59:58;8.40;;;2.63;;
75429;SDS011;64127;51.488;5.462;2023-03-31T07:02:31;8.77;;;2.80;;
75429;SDS011;64127;51.488;5.462;2023-03-31T07:05:03;10.03;;;2.73;;
75429;SDS011;64127;51.488;5.462;2023-03-31T07:07:36;6.87;;;2.50;;
75429;SDS011;64127;51.488;5.462;2023-03-31T07:10:08;7.67;;;2.80;;
75429;SDS011;64127;51.488;5.462;2023-03-31T07:12:41;8.83;;;2.97;;
75429;SDS011;64127;51.488;5.462;2023-03-31T07:15:14;10.87;;;3.10;;
75429;SDS011;64127;51.488;5.462;2023-03-31T07:17:46;7.93;;;3.07;;
75429;SDS011;64127;51.488;5.462;2023-03-31T07:20:21;8.10;;;2.80;;
75429;SDS011;64127;51.488;5.462;2023-03-31T07:22:53;6.43;;;2.93;;
75429;SDS011;64127;51.488;5.462;2023-03-31T07:25:26;7.40;;;3.17;;
75429;SDS011;64127;51.488;5.462;2023-03-31T07:27:58;5.27;;;1.93;;
75429;SDS011;64127;51.488;5.462;2023-03-31T07:30:30;3.90;;;1.90;;
75429;SDS011;64127;51.488;5.462;2023-03-31T07:33:02;2.47;;;1.40;;
75429;SDS011;64127;51.488;5.462;2023-03-31T07:35:36;3.70;;;1.40;;
75429;SDS011;64127;51.488;5.462;2023-03-31T07:38:11;4.53;;;1.67;;
75429;SDS011;64127;51.488;5.462;2023-03-31T07:40:43;4.40;;;1.60;;
75429;SDS011;64127;51.488;5.462;2023-03-31T07:43:36;4.43;;;1.77;;
75429;SDS011;64127;51.488;5.462;2023-03-31T07:46:15;5.77;;;2.00;;
75429;SDS011;64127;51.488;5.462;2023-03-31T07:48:52;6.23;;;2.00;;
75429;SDS011;64127;51.488;5.462;2023-03-31T07:51:28;5.90;;;2.13;;
75429;SDS011;64127;51.488;5.462;2023-03-31T07:54:00;8.67;;;2.90;;
75429;SDS011;64127;51.488;5.462;2023-03-31T07:56:33;6.90;;;2.93;;
75429;SDS011;64127;51.488;5.462;2023-03-31T07:59:05;7.67;;;2.90;;
75429;SDS011;64127;51.488;5.462;2023-03-31T08:01:37;10.57;;;3.20;;
75429;SDS011;64127;51.488;5.462;2023-03-31T08:04:10;7.40;;;2.97;;
75429;SDS011;64127;51.488;5.462;2023-03-31T08:06:45;9.13;;;2.80;;
75429;SDS011;64127;51.488;5.462;2023-03-31T08:09:17;10.73;;;3.13;;
75429;SDS011;64127;51.488;5.462;2023-03-31T08:11:52;8.27;;;3.03;;
75429;SDS011;64127;51.488;5.462;2023-03-31T08:14:26;9.40;;;3.20;;
75429;SDS011;64127;51.488;5.462;2023-03-31T08:17:11;9.50;;;3.60;;
75429;SDS011;64127;51.488;5.462;2023-03-31T08:19:44;11.73;;;3.77;;
75429;SDS011;64127;51.488;5.462;2023-03-31T08:22:16;15.30;;;4.00;;
75429;SDS011;64127;51.488;5.462;2023-03-31T08:24:48;11.83;;;3.53;;
75429;SDS011;64127;51.488;5.462;2023-03-31T08:27:23;12.43;;;4.27;;
75429;SDS011;64127;51.488;5.462;2023-03-31T08:29:56;12.17;;;3.57;;
75429;SDS011;64127;51.488;5.462;2023-03-31T08:32:29;11.53;;;3.40;;
75429;SDS011;64127;51.488;5.462;2023-03-31T08:35:03;11.90;;;4.17;;
75429;SDS011;64127;51.488;5.462;2023-03-31T08:37:42;13.67;;;4.10;;
75429;SDS011;64127;51.488;5.462;2023-03-31T08:40:19;12.27;;;3.93;;
75429;SDS011;64127;51.488;5.462;2023-03-31T08:42:57;10.00;;;3.20;;
75429;SDS011;64127;51.488;5.462;2023-03-31T08:45:45;18.10;;;4.33;;
75429;SDS011;64127;51.488;5.462;2023-03-31T08:51:08;12.43;;;4.10;;
75429;SDS011;64127;51.488;5.462;2023-03-31T08:56:27;13.77;;;4.17;;
75429;SDS011;64127;51.488;5.462;2023-03-31T08:59:04;10.43;;;3.63;;
75429;SDS011;64127;51.488;5.462;2023-03-31T09:02:11;11.80;;;3.60;;
75429;SDS011;64127;51.488;5.462;2023-03-31T09:08:12;13.07;;;3.60;;
75429;SDS011;64127;51.488;5.462;2023-03-31T09:11:53;14.10;;;3.80;;
75429;SDS011;64127;51.488;5.462;2023-03-31T09:14:20;13.30;;;3.93;;
75429;SDS011;64127;51.488;5.462;2023-03-31T09:17:18;16.07;;;4.20;;
75429;SDS011;64127;51.488;5.462;2023-03-31T09:20:16;11.53;;;3.37;;
75429;SDS011;64127;51.488;5.462;2023-03-31T09:25:50;8.90;;;3.57;;
75429;SDS011;64127;51.488;5.462;2023-03-31T09:28:29;12.50;;;4.07;;
75429;SDS011;64127;51.488;5.462;2023-03-31T09:31:15;14.23;;;4.20;;
75429;SDS011;64127;51.488;5.462;2023-03-31T09:33:58;11.03;;;3.30;;
75429;SDS011;64127;51.488;5.462;2023-03-31T09:36:40;11.43;;;4.00;;
75429;SDS011;64127;51.488;5.462;2023-03-31T09:39:13;12.30;;;4.00;;
75429;SDS011;64127;51.488;5.462;2023-03-31T09:41:46;12.37;;;3.93;;
75429;SDS011;64127;51.488;5.462;2023-03-31T09:44:26;11.80;;;3.77;;
75429;SDS011;64127;51.488;5.462;2023-03-31T09:47:23;11.03;;;3.60;;
75429;SDS011;64127;51.488;5.462;2023-03-31T09:50:05;11.60;;;3.60;;
75429;SDS011;64127;51.488;5.462;2023-03-31T09:52:46;8.00;;;3.13;;
75429;SDS011;64127;51.488;5.462;2023-03-31T09:55:24;8.73;;;3.07;;
75429;SDS011;64127;51.488;5.462;2023-03-31T09:58:11;7.03;;;3.07;;
75429;SDS011;64127;51.488;5.462;2023-03-31T10:01:20;9.77;;;3.37;;
75429;SDS011;64127;51.488;5.462;2023-03-31T10:03:50;8.53;;;2.90;;
75429;SDS011;64127;51.488;5.462;2023-03-31T10:06:25;11.63;;;3.30;;
75429;SDS011;64127;51.488;5.462;2023-03-31T10:09:01;12.47;;;3.23;;
75429;SDS011;64127;51.488;5.462;2023-03-31T10:11:36;11.33;;;3.07;;
75429;SDS011;64127;51.488;5.462;2023-03-31T10:14:14;7.77;;;2.70;;
75429;SDS011;64127;51.488;5.462;2023-03-31T10:16:52;7.13;;;3.00;;
75429;SDS011;64127;51.488;5.462;2023-03-31T10:19:31;10.67;;;3.40;;
75429;SDS011;64127;51.488;5.462;2023-03-31T10:24:52;7.00;;;2.80;;
75429;SDS011;64127;51.488;5.462;2023-03-31T10:27:28;8.33;;;2.83;;
75429;SDS011;64127;51.488;5.462;2023-03-31T10:30:03;6.40;;;2.40;;
75429;SDS011;64127;51.488;5.462;2023-03-31T10:32:43;10.73;;;3.10;;
75429;SDS011;64127;51.488;5.462;2023-03-31T10:35:32;8.20;;;2.47;;
75429;SDS011;64127;51.488;5.462;2023-03-31T10:38:23;8.67;;;3.10;;
75429;SDS011;64127;51.488;5.462;2023-03-31T10:41:10;9.77;;;3.10;;
75429;SDS011;64127;51.488;5.462;2023-03-31T10:43:52;7.80;;;2.83;;
75429;SDS011;64127;51.488;5.462;2023-03-31T10:46:48;7.37;;;2.60;;
75429;SDS011;64127;51.488;5.462;2023-03-31T10:49:26;6.90;;;2.77;;
75429;SDS011;64127;51.488;5.462;2023-03-31T10:52:23;8.57;;;2.63;;
75429;SDS011;64127;51.488;5.462;2023-03-31T10:55:00;7.90;;;2.80;;
75429;SDS011;64127;51.488;5.462;2023-03-31T10:57:42;8.00;;;2.63;;
75429;SDS011;64127;51.488;5.462;2023-03-31T11:00:52;10.43;;;2.90;;
75429;SDS011;64127;51.488;5.462;2023-03-31T11:06:56;9.20;;;3.17;;
75429;SDS011;64127;51.488;5.462;2023-03-31T11:13:13;8.13;;;2.90;;
75429;SDS011;64127;51.488;5.462;2023-03-31T11:27:57;8.70;;;3.40;;
75429;SDS011;64127;51.488;5.462;2023-03-31T11:42:45;12.00;;;4.10;;
75429;SDS011;64127;51.488;5.462;2023-03-31T11:46:12;10.17;;;3.10;;
75429;SDS011;64127;51.488;5.462;2023-03-31T11:49:21;10.40;;;3.13;;
75429;SDS011;64127;51.488;5.462;2023-03-31T11:52:05;9.17;;;3.13;;
75429;SDS011;64127;51.488;5.462;2023-03-31T12:06:24;5.53;;;2.33;;
75429;SDS011;64127;51.488;5.462;2023-03-31T12:09:25;5.90;;;2.43;;
75429;SDS011;64127;51.488;5.462;2023-03-31T12:12:41;7.67;;;2.40;;
75429;SDS011;64127;51.488;5.462;2023-03-31T12:15:21;9.80;;;3.03;;
75429;SDS011;64127;51.488;5.462;2023-03-31T12:18:02;8.63;;;2.63;;
75429;SDS011;64127;51.488;5.462;2023-03-31T12:20:56;11.27;;;3.23;;
75429;SDS011;64127;51.488;5.462;2023-03-31T12:23:35;6.73;;;2.67;;
75429;SDS011;64127;51.488;5.462;2023-03-31T12:29:22;5.37;;;2.37;;
75429;SDS011;64127;51.488;5.462;2023-03-31T12:32:13;6.87;;;2.40;;
75429;SDS011;64127;51.488;5.462;2023-03-31T12:34:56;5.90;;;2.50;;
75429;SDS011;64127;51.488;5.462;2023-03-31T12:40:58;8.67;;;3.07;;
75429;SDS011;64127;51.488;5.462;2023-03-31T12:43:50;8.10;;;2.43;;
75429;SDS011;64127;51.488;5.462;2023-03-31T12:49:35;10.20;;;2.77;;
75429;SDS011;64127;51.488;5.462;2023-03-31T13:01:08;7.07;;;2.77;;
75429;SDS011;64127;51.488;5.462;2023-03-31T13:06:53;8.87;;;2.50;;
75429;SDS011;64127;51.488;5.462;2023-03-31T13:12:15;6.60;;;2.50;;
75429;SDS011;64127;51.488;5.462;2023-03-31T13:14:58;7.63;;;2.53;;
75429;SDS011;64127;51.488;5.462;2023-03-31T13:17:35;7.50;;;2.20;;
75429;SDS011;64127;51.488;5.462;2023-03-31T13:20:15;7.43;;;2.60;;
75429;SDS011;64127;51.488;5.462;2023-03-31T13:23:04;6.10;;;2.10;;
75429;SDS011;64127;51.488;5.462;2023-03-31T13:30:58;6.77;;;2.10;;
75429;SDS011;64127;51.488;5.462;2023-03-31T13:33:55;5.93;;;2.27;;
75429;SDS011;64127;51.488;5.462;2023-03-31T13:39:14;5.87;;;2.13;;
75429;SDS011;64127;51.488;5.462;2023-03-31T13:42:15;4.63;;;1.80;;
75429;SDS011;64127;51.488;5.462;2023-03-31T13:53:31;8.10;;;2.20;;
75429;SDS011;64127;51.488;5.462;2023-03-31T14:08:22;5.50;;;2.07;;
75429;SDS011;64127;51.488;5.462;2023-03-31T14:11:13;5.27;;;1.80;;
75429;SDS011;64127;51.488;5.462;2023-03-31T14:16:47;4.17;;;1.83;;
75429;SDS011;64127;51.488;5.462;2023-03-31T14:31:33;5.03;;;1.70;;
75429;SDS011;64127;51.488;5.462;2023-03-31T14:37:30;4.77;;;1.43;;
75429;SDS011;64127;51.488;5.462;2023-03-31T14:40:04;3.53;;;1.50;;
75429;SDS011;64127;51.488;5.462;2023-03-31T14:42:44;3.17;;;1.40;;
75429;SDS011;64127;51.488;5.462;2023-03-31T14:45:24;2.93;;;1.17;;
75429;SDS011;64127;51.488;5.462;2023-03-31T14:48:03;4.00;;;1.40;;
75429;SDS011;64127;51.488;5.462;2023-03-31T14:50:47;3.00;;;1.10;;
75429;SDS011;64127;51.488;5.462;2023-03-31T14:53:22;2.50;;;1.10;;
75429;SDS011;64127;51.488;5.462;2023-03-31T14:56:04;2.47;;;1.03;;
75429;SDS011;64127;51.488;5.462;2023-03-31T14:58:49;2.23;;;0.90;;
75429;SDS011;64127;51.488;5.462;2023-03-31T15:01:28;1.10;;;0.90;;
75429;SDS011;64127;51.488;5.462;2023-03-31T15:04:14;1.83;;;0.80;;
75429;SDS011;64127;51.488;5.462;2023-03-31T15:07:05;1.10;;;0.60;;
75429;SDS011;64127;51.488;5.462;2023-03-31T15:09:38;1.33;;;0.83;;
75429;SDS011;64127;51.488;5.462;2023-03-31T15:12:14;2.23;;;0.80;;
75429;SDS011;64127;51.488;5.462;2023-03-31T15:15:10;2.10;;;0.93;;
75429;SDS011;64127;51.488;5.462;2023-03-31T15:17:45;1.87;;;0.90;;
75429;SDS011;64127;51.488;5.462;2023-03-31T15:26:07;1.50;;;0.80;;
75429;SDS011;64127;51.488;5.462;2023-03-31T15:28:52;1.63;;;0.80;;
75429;SDS011;64127;51.488;5.462;2023-03-31T15:31:37;2.17;;;0.87;;
75429;SDS011;64127;51.488;5.462;2023-03-31T15:34:13;0.87;;;0.50;;
75429;SDS011;64127;51.488;5.462;2023-03-31T15:37:07;1.53;;;0.87;;
75429;SDS011;64127;51.488;5.462;2023-03-31T15:39:45;1.57;;;0.80;;
75429;SDS011;64127;51.488;5.462;2023-03-31T15:42:19;2.13;;;1.03;;
75429;SDS011;64127;51.488;5.462;2023-03-31T15:48:13;2.00;;;1.20;;
75429;SDS011;64127;51.488;5.462;2023-03-31T15:50:52;2.33;;;1.30;;
75429;SDS011;64127;51.488;5.462;2023-03-31T15:56:27;2.53;;;0.90;;
75429;SDS011;64127;51.488;5.462;2023-03-31T16:02:18;2.47;;;0.97;;
75429;SDS011;64127;51.488;5.462;2023-03-31T16:04:56;1.60;;;0.77;;
75429;SDS011;64127;51.488;5.462;2023-03-31T16:07:31;1.23;;;0.90;;
75429;SDS011;64127;51.488;5.462;2023-03-31T16:10:09;1.20;;;1.00;;
75429;SDS011;64127;51.488;5.462;2023-03-31T16:12:56;1.63;;;0.93;;
75429;SDS011;64127;51.488;5.462;2023-03-31T16:15:36;2.37;;;0.90;;
75429;SDS011;64127;51.488;5.462;2023-03-31T16:21:10;1.40;;;0.80;;
75429;SDS011;64127;51.488;5.462;2023-03-31T16:23:48;1.17;;;0.87;;
75429;SDS011;64127;51.488;5.462;2023-03-31T16:26:26;0.67;;;0.67;;
75429;SDS011;64127;51.488;5.462;2023-03-31T16:28:59;1.07;;;0.73;;
75429;SDS011;64127;51.488;5.462;2023-03-31T16:31:35;1.00;;;0.83;;
75429;SDS011;64127;51.488;5.462;2023-03-31T16:34:11;1.17;;;0.80;;
75429;SDS011;64127;51.488;5.462;2023-03-31T16:36:45;1.33;;;0.70;;
75429;SDS011;64127;51.488;5.462;2023-03-31T16:39:17;2.90;;;0.93;;
75429;SDS011;64127;51.488;5.462;2023-03-31T16:41:51;3.23;;;1.00;;
75429;SDS011;64127;51.488;5.462;2023-03-31T16:44:23;2.57;;;0.70;;
75429;SDS011;64127;51.488;5.462;2023-03-31T16:46:55;2.50;;;1.00;;
75429;SDS011;64127;51.488;5.462;2023-03-31T16:49:27;3.40;;;1.47;;
75429;SDS011;64127;51.488;5.462;2023-03-31T16:52:00;2.57;;;1.47;;
75429;SDS011;64127;51.488;5.462;2023-03-31T16:54:44;2.30;;;1.20;;
75429;SDS011;64127;51.488;5.462;2023-03-31T16:57:16;2.87;;;1.30;;
75429;SDS011;64127;51.488;5.462;2023-03-31T16:59:49;3.33;;;1.23;;
75429;SDS011;64127;51.488;5.462;2023-03-31T17:02:21;3.10;;;1.40;;
75429;SDS011;64127;51.488;5.462;2023-03-31T17:04:53;2.57;;;1.20;;
75429;SDS011;64127;51.488;5.462;2023-03-31T17:07:36;3.70;;;1.57;;
75429;SDS011;64127;51.488;5.462;2023-03-31T17:10:08;4.10;;;1.40;;
75429;SDS011;64127;51.488;5.462;2023-03-31T17:12:41;3.33;;;1.20;;
75429;SDS011;64127;51.488;5.462;2023-03-31T17:15:13;2.00;;;1.00;;
75429;SDS011;64127;51.488;5.462;2023-03-31T17:17:45;2.60;;;1.10;;
75429;SDS011;64127;51.488;5.462;2023-03-31T17:20:18;5.23;;;1.37;;
75429;SDS011;64127;51.488;5.462;2023-03-31T17:22:50;2.93;;;1.40;;
75429;SDS011;64127;51.488;5.462;2023-03-31T17:25:23;2.50;;;1.20;;
75429;SDS011;64127;51.488;5.462;2023-03-31T17:27:55;3.63;;;1.30;;
75429;SDS011;64127;51.488;5.462;2023-03-31T17:30:27;3.17;;;1.40;;
75429;SDS011;64127;51.488;5.462;2023-03-31T17:32:59;2.83;;;1.50;;
75429;SDS011;64127;51.488;5.462;2023-03-31T17:35:31;2.87;;;1.37;;
75429;SDS011;64127;51.488;5.462;2023-03-31T17:38:03;3.83;;;1.30;;
75429;SDS011;64127;51.488;5.462;2023-03-31T17:40:35;2.57;;;1.50;;
75429;SDS011;64127;51.488;5.462;2023-03-31T17:43:08;2.87;;;1.30;;
75429;SDS011;64127;51.488;5.462;2023-03-31T17:45:40;3.10;;;1.30;;
75429;SDS011;64127;51.488;5.462;2023-03-31T17:48:12;3.53;;;1.57;;
75429;SDS011;64127;51.488;5.462;2023-03-31T17:50:44;1.87;;;1.33;;
75429;SDS011;64127;51.488;5.462;2023-03-31T17:53:16;3.55;;;1.50;;
75429;SDS011;64127;51.488;5.462;2023-03-31T17:55:48;2.60;;;1.10;;
75429;SDS011;64127;51.488;5.462;2023-03-31T17:58:21;2.90;;;1.40;;
75429;SDS011;64127;51.488;5.462;2023-03-31T18:00:53;1.83;;;1.10;;
75429;SDS011;64127;51.488;5.462;2023-03-31T18:03:28;3.20;;;1.40;;
75429;SDS011;64127;51.488;5.462;2023-03-31T18:06:04;3.27;;;1.53;;
75429;SDS011;64127;51.488;5.462;2023-03-31T18:08:39;3.93;;;1.30;;
75429;SDS011;64127;51.488;5.462;2023-03-31T18:11:12;4.63;;;1.80;;
75429;SDS011;64127;51.488;5.462;2023-03-31T18:13:45;3.17;;;1.60;;
75429;SDS011;64127;51.488;5.462;2023-03-31T18:16:17;3.87;;;1.70;;
75429;SDS011;64127;51.488;5.462;2023-03-31T18:18:50;4.60;;;1.70;;
75429;SDS011;64127;51.488;5.462;2023-03-31T18:21:22;2.70;;;1.30;;
75429;SDS011;64127;51.488;5.462;2023-03-31T18:23:55;2.63;;;1.27;;
75429;SDS011;64127;51.488;5.462;2023-03-31T18:26:27;2.77;;;1.50;;
75429;SDS011;64127;51.488;5.462;2023-03-31T18:28:59;2.13;;;1.40;;
75429;SDS011;64127;51.488;5.462;2023-03-31T18:31:32;3.70;;;1.30;;
75429;SDS011;64127;51.488;5.462;2023-03-31T18:34:04;3.00;;;1.50;;
75429;SDS011;64127;51.488;5.462;2023-03-31T18:36:36;2.73;;;1.40;;
75429;SDS011;64127;51.488;5.462;2023-03-31T18:39:09;4.13;;;1.50;;
75429;SDS011;64127;51.488;5.462;2023-03-31T18:41:43;3.07;;;1.77;;
75429;SDS011;64127;51.488;5.462;2023-03-31T18:44:18;4.47;;;1.70;;
75429;SDS011;64127;51.488;5.462;2023-03-31T18:46:51;3.23;;;1.47;;
75429;SDS011;64127;51.488;5.462;2023-03-31T18:49:24;3.83;;;1.73;;
75429;SDS011;64127;51.488;5.462;2023-03-31T18:51:56;3.23;;;1.70;;
75429;SDS011;64127;51.488;5.462;2023-03-31T18:54:29;3.27;;;1.80;;
75429;SDS011;64127;51.488;5.462;2023-03-31T18:57:02;3.87;;;1.73;;
75429;SDS011;64127;51.488;5.462;2023-03-31T18:59:34;4.10;;;1.70;;
75429;SDS011;64127;51.488;5.462;2023-03-31T19:02:06;5.07;;;1.97;;